Time;durP1;ratioP1;P1;durP2;ratioP2;P2;SDS_P1;SDS_P2;PMS_P1;PMS_P2;Temp;Humidity;BMP_temperature;BMP_pressure;BME280_temperature;BME280_humidity;BME280_pressure;Samples;Min_cycle;Max_cycle;Signal;HPM_P1;HPM_P2
2022/03/21 00:00:50;;;;;;;9.75;4.25;;;;;;;;;;6245682;22;20003;-72
2022/03/21 00:03:16;;;;;;;7.38;3.72;;;;;;;;;;6271365;22;20520;-71
2022/03/21 00:05:42;;;;;;;9.43;3.75;;;;;;;;;;6272211;22;20479;-71
2022/03/21 00:08:08;;;;;;;12.65;3.80;;;;;;;;;;6272160;22;20471;-70
2022/03/21 00:10:34;;;;;;;13.05;4.30;;;;;;;;;;6244668;22;20099;-72
2022/03/21 00:13:01;;;;;;;10.98;4.28;;;;;;;;;;6245043;22;20043;-69
2022/03/21 00:15:28;;;;;;;7.18;4.55;;;;;;;;;;6244246;22;20035;-71
2022/03/21 00:17:54;;;;;;;10.13;3.88;;;;;;;;;;6272533;22;20058;-69
2022/03/21 00:20:20;;;;;;;6.90;3.28;;;;;;;;;;6272271;22;20011;-69
2022/03/21 00:22:46;;;;;;;8.43;4.00;;;;;;;;;;6244582;22;20452;-71
2022/03/21 00:25:12;;;;;;;9.55;4.22;;;;;;;;;;6244640;22;20012;-70
2022/03/21 00:27:40;;;;;;;6.90;4.03;;;;;;;;;;6244993;22;20088;-71
2022/03/21 00:30:10;;;;;;;;;;;;;;;;;;6197318;22;20092;-71
2022/03/21 00:32:37;;;;;;;9.50;5.00;;;;;;;;;;6270927;22;20294;-70
2022/03/21 00:35:04;;;;;;;6.88;3.83;;;;;;;;;;6272485;22;20471;-70
2022/03/21 00:37:31;;;;;;;12.98;4.30;;;;;;;;;;6194730;22;20093;-71
2022/03/21 00:39:58;;;;;;;7.38;3.33;;;;;;;;;;6272176;22;20106;-71
2022/03/21 00:42:24;;;;;;;7.35;3.97;;;;;;;;;;6271819;22;20129;-71
2022/03/21 00:44:50;;;;;;;6.88;3.75;;;;;;;;;;6271810;22;20098;-71
2022/03/21 00:47:16;;;;;;;8.60;3.80;;;;;;;;;;6244761;22;20620;-71
2022/03/21 00:49:43;;;;;;;10.45;4.10;;;;;;;;;;6272122;22;20030;-71
2022/03/21 00:52:09;;;;;;;11.32;3.88;;;;;;;;;;6245067;22;20008;-71
2022/03/21 00:54:35;;;;;;;8.07;3.95;;;;;;;;;;6271673;22;20099;-71
2022/03/21 00:57:01;;;;;;;10.50;3.35;;;;;;;;;;6245204;22;20047;-71
2022/03/21 00:59:27;;;;;;;6.13;3.63;;;;;;;;;;6272221;22;20083;-71
2022/03/21 01:01:53;;;;;;;6.22;3.42;;;;;;;;;;6273434;22;20359;-73
2022/03/21 01:04:19;;;;;;;8.55;4.15;;;;;;;;;;6272389;22;20019;-70
2022/03/21 01:06:45;;;;;;;7.30;3.42;;;;;;;;;;6245070;22;20542;-70
2022/03/21 01:09:14;;;;;;;8.00;3.83;;;;;;;;;;6271725;22;20047;-71
2022/03/21 01:11:40;;;;;;;11.25;4.05;;;;;;;;;;6271681;22;20012;-71
2022/03/21 01:14:06;;;;;;;9.00;4.25;;;;;;;;;;6272351;22;20452;-71
2022/03/21 01:16:32;;;;;;;10.43;4.63;;;;;;;;;;6272674;22;20012;-70
2022/03/21 01:18:58;;;;;;;3.75;2.67;;;;;;;;;;6273361;22;20019;-71
2022/03/21 01:21:24;;;;;;;10.38;4.32;;;;;;;;;;6271761;22;20080;-70
2022/03/21 01:23:50;;;;;;;12.82;3.50;;;;;;;;;;6272495;22;20016;-71
2022/03/21 01:26:15;;;;;;;13.00;4.47;;;;;;;;;;6244986;22;20023;-71
2022/03/21 01:28:41;;;;;;;12.55;3.22;;;;;;;;;;6271252;22;20028;-72
2022/03/21 01:31:08;;;;;;;5.43;2.72;;;;;;;;;;6245050;22;20011;-69
2022/03/21 01:33:35;;;;;;;7.22;3.08;;;;;;;;;;6271205;22;20015;-71
2022/03/21 01:36:01;;;;;;;8.00;3.60;;;;;;;;;;6271734;22;20018;-69
2022/03/21 01:38:27;;;;;;;9.32;3.85;;;;;;;;;;6271239;22;20098;-71
2022/03/21 01:40:52;;;;;;;12.10;4.05;;;;;;;;;;6271514;22;20444;-71
2022/03/21 01:43:18;;;;;;;6.40;3.30;;;;;;;;;;6271082;22;20024;-70
2022/03/21 01:45:45;;;;;;;12.43;4.03;;;;;;;;;;6271705;22;20087;-71
2022/03/21 01:48:10;;;;;;;8.73;4.78;;;;;;;;;;6271551;22;20480;-71
2022/03/21 01:50:37;;;;;;;9.48;3.67;;;;;;;;;;6244263;22;20039;-72
2022/03/21 01:55:48;;;;;;;7.38;3.30;;;;;;;;;;6271568;22;20171;-71
2022/03/21 01:58:14;;;;;;;10.88;4.00;;;;;;;;;;6271458;22;20027;-72
2022/03/21 02:00:43;;;;;;;11.85;3.80;;;;;;;;;;6271503;22;20315;-70
2022/03/21 02:03:09;;;;;;;10.77;4.40;;;;;;;;;;6244385;22;20141;-71
2022/03/21 02:05:36;;;;;;;14.82;4.50;;;;;;;;;;6244389;22;20423;-71
2022/03/21 02:08:02;;;;;;;11.80;4.72;;;;;;;;;;6273977;22;20106;-70
2022/03/21 02:10:28;;;;;;;6.07;4.03;;;;;;;;;;6271313;22;20502;-71
2022/03/21 02:12:54;;;;;;;7.53;3.40;;;;;;;;;;6271204;22;20035;-71
2022/03/21 02:15:20;;;;;;;4.50;3.25;;;;;;;;;;6218886;22;20012;-71
2022/03/21 02:17:46;;;;;;;9.18;4.15;;;;;;;;;;6271879;22;20018;-72
2022/03/21 02:20:13;;;;;;;12.35;3.80;;;;;;;;;;6271391;22;20008;-72
2022/03/21 02:22:54;;;;;;;11.23;4.38;;;;;;;;;;6271080;22;20095;-71
2022/03/21 02:25:22;;;;;;;14.63;4.00;;;;;;;;;;6244826;22;20428;-71
2022/03/21 02:27:48;;;;;;;14.10;4.57;;;;;;;;;;6219664;22;20024;-71
2022/03/21 02:30:14;;;;;;;10.43;4.25;;;;;;;;;;6244893;22;20015;-70
2022/03/21 02:32:40;;;;;;;6.82;4.10;;;;;;;;;;6244642;22;20321;-72
2022/03/21 02:35:06;;;;;;;14.88;5.43;;;;;;;;;;6244784;22;20086;-70
2022/03/21 02:37:32;;;;;;;8.07;3.55;;;;;;;;;;6271418;22;20034;-72
2022/03/21 02:39:58;;;;;;;8.50;3.97;;;;;;;;;;6219546;22;20436;-71
2022/03/21 02:42:26;;;;;;;9.75;3.78;;;;;;;;;;6272709;22;20016;-71
2022/03/21 02:44:52;;;;;;;8.25;3.47;;;;;;;;;;6272322;22;20084;-72
2022/03/21 02:47:18;;;;;;;8.63;3.65;;;;;;;;;;6271421;22;20541;-71
2022/03/21 02:49:44;;;;;;;12.50;4.00;;;;;;;;;;6244100;22;20024;-71
2022/03/21 02:52:10;;;;;;;16.67;5.22;;;;;;;;;;6271555;22;20035;-72
2022/03/21 02:54:36;;;;;;;8.85;2.40;;;;;;;;;;6271300;22;20015;-71
2022/03/21 02:57:02;;;;;;;3.92;2.08;;;;;;;;;;6271179;22;20024;-72
2022/03/21 02:59:28;;;;;;;9.50;3.42;;;;;;;;;;6271056;22;20019;-72
2022/03/21 03:01:54;;;;;;;8.02;3.65;;;;;;;;;;6271289;22;20464;-72
2022/03/21 03:04:21;;;;;;;6.60;3.42;;;;;;;;;;6244869;22;20018;-73
2022/03/21 03:06:47;;;;;;;3.15;1.98;;;;;;;;;;6271589;22;20090;-73
2022/03/21 03:09:13;;;;;;;8.02;2.60;;;;;;;;;;6243940;22;20047;-72
2022/03/21 03:11:39;;;;;;;8.18;4.07;;;;;;;;;;6271112;22;20035;-73
2022/03/21 03:14:05;;;;;;;9.27;3.15;;;;;;;;;;6272157;22;20328;-72
2022/03/21 03:16:31;;;;;;;8.23;3.95;;;;;;;;;;6269025;22;20039;-73
2022/03/21 03:18:57;;;;;;;10.73;4.93;;;;;;;;;;6246194;22;20027;-71
2022/03/21 03:21:27;;;;;;;6.32;4.00;;;;;;;;;;6274426;22;20364;-72
2022/03/21 03:23:52;;;;;;;9.65;4.20;;;;;;;;;;6274143;22;20016;-72
2022/03/21 03:26:19;;;;;;;2.80;2.15;;;;;;;;;;6274761;22;20038;-73
2022/03/21 03:28:45;;;;;;;4.57;2.47;;;;;;;;;;6272883;22;20031;-72
2022/03/21 03:31:11;;;;;;;6.95;3.58;;;;;;;;;;6273144;22;20333;-73
2022/03/21 03:33:36;;;;;;;6.75;3.80;;;;;;;;;;6272597;22;20015;-71
2022/03/21 03:36:03;;;;;;;8.40;3.85;;;;;;;;;;6245302;22;20091;-73
2022/03/21 03:38:28;;;;;;;3.40;2.50;;;;;;;;;;6246194;22;20012;-71
2022/03/21 03:40:54;;;;;;;7.45;3.88;;;;;;;;;;6246266;22;20031;-72
2022/03/21 03:43:20;;;;;;;9.27;3.67;;;;;;;;;;6246130;22;20016;-71
2022/03/21 03:45:49;;;;;;;5.68;4.07;;;;;;;;;;6270697;22;20513;-71
2022/03/21 03:48:15;;;;;;;10.18;3.88;;;;;;;;;;6245854;22;20070;-72
2022/03/21 03:50:41;;;;;;;13.88;3.80;;;;;;;;;;6245200;22;20011;-72
2022/03/21 03:53:07;;;;;;;8.35;3.38;;;;;;;;;;6273009;22;20015;-73
2022/03/21 03:55:33;;;;;;;11.65;4.50;;;;;;;;;;6272442;22;20069;-71
2022/03/21 03:57:59;;;;;;;10.07;4.18;;;;;;;;;;6272789;22;20035;-72
2022/03/21 04:00:25;;;;;;;7.30;3.97;;;;;;;;;;6272383;22;20423;-72
2022/03/21 04:05:35;;;;;;;7.65;3.75;;;;;;;;;;6245226;22;20490;-72
2022/03/21 04:08:01;;;;;;;5.78;3.90;;;;;;;;;;6246010;22;20019;-70
2022/03/21 04:10:27;;;;;;;8.63;4.03;;;;;;;;;;6272280;22;20007;-70
2022/03/21 04:12:53;;;;;;;14.55;4.63;;;;;;;;;;6272425;22;20038;-69
2022/03/21 04:15:19;;;;;;;13.48;4.57;;;;;;;;;;6243421;22;20034;-69
2022/03/21 04:17:45;;;;;;;6.57;3.55;;;;;;;;;;6270142;22;20008;-70
2022/03/21 04:20:11;;;;;;;9.35;4.13;;;;;;;;;;6272955;22;20016;-69
2022/03/21 04:22:37;;;;;;;10.52;4.57;;;;;;;;;;6270804;22;20019;-70
2022/03/21 04:25:04;;;;;;;5.95;3.83;;;;;;;;;;6272744;22;20016;-70
2022/03/21 04:27:30;;;;;;;9.10;4.10;;;;;;;;;;6271977;22;20020;-71
2022/03/21 04:29:56;;;;;;;5.75;2.97;;;;;;;;;;6271787;22;20302;-70
2022/03/21 04:32:22;;;;;;;12.95;4.93;;;;;;;;;;6245231;22;20054;-71
2022/03/21 04:34:48;;;;;;;9.40;4.30;;;;;;;;;;6244902;22;20016;-70
2022/03/21 04:37:15;;;;;;;7.72;4.25;;;;;;;;;;6272610;22;20506;-70
2022/03/21 04:39:40;;;;;;;9.23;4.43;;;;;;;;;;6245375;22;20090;-70
2022/03/21 04:42:06;;;;;;;9.43;4.40;;;;;;;;;;6272699;22;20424;-70
2022/03/21 04:44:33;;;;;;;12.63;4.70;;;;;;;;;;6244964;22;20068;-71
2022/03/21 04:46:58;;;;;;;7.78;4.18;;;;;;;;;;6271826;22;20090;-69
2022/03/21 04:49:25;;;;;;;7.65;3.65;;;;;;;;;;6271603;22;20019;-70
2022/03/21 04:51:50;;;;;;;3.83;3.50;;;;;;;;;;6271814;22;20011;-70
2022/03/21 04:54:16;;;;;;;10.35;4.72;;;;;;;;;;6271708;22;20361;-71
2022/03/21 04:56:42;;;;;;;10.38;4.18;;;;;;;;;;6272124;22;20019;-71
2022/03/21 04:59:09;;;;;;;8.10;4.47;;;;;;;;;;6271829;22;20015;-71
2022/03/21 05:01:36;;;;;;;12.52;4.35;;;;;;;;;;6272181;22;20064;-71
2022/03/21 05:04:02;;;;;;;10.70;4.05;;;;;;;;;;6272441;22;20455;-70
2022/03/21 05:06:28;;;;;;;6.20;3.83;;;;;;;;;;6272230;22;20015;-71
2022/03/21 05:08:54;;;;;;;5.32;3.28;;;;;;;;;;6194814;22;20027;-71
2022/03/21 05:11:20;;;;;;;5.22;4.28;;;;;;;;;;6272109;22;20573;-71
2022/03/21 05:13:46;;;;;;;8.07;3.95;;;;;;;;;;6244842;22;20015;-72
2022/03/21 05:16:12;;;;;;;10.10;5.15;;;;;;;;;;6272247;22;20008;-71
2022/03/21 05:18:39;;;;;;;16.33;5.18;;;;;;;;;;6245556;22;20022;-70
2022/03/21 05:21:05;;;;;;;7.78;4.13;;;;;;;;;;6272936;22;20034;-70
2022/03/21 05:31:44;;;;;;;9.75;5.18;;;;;;;;;;6273417;22;20012;-71
2022/03/21 05:36:54;;;;;;;7.20;4.90;;;;;;;;;;6273051;22;20404;-71
2022/03/21 05:39:22;;;;;;;22.77;5.30;;;;;;;;;;6273041;22;20015;-71
2022/03/21 05:41:51;;;;;;;12.65;5.28;;;;;;;;;;6273136;22;20007;-72
2022/03/21 05:44:17;;;;;;;6.40;3.92;;;;;;;;;;6246102;22;20020;-72
2022/03/21 05:46:43;;;;;;;5.75;3.63;;;;;;;;;;6272906;22;20035;-71
2022/03/21 05:49:09;;;;;;;7.32;4.25;;;;;;;;;;6272442;22;20019;-71
2022/03/21 05:51:36;;;;;;;13.10;5.15;;;;;;;;;;6272885;22;20039;-72
2022/03/21 05:54:06;;;;;;;10.07;3.97;;;;;;;;;;6273038;22;20012;-71
2022/03/21 05:56:32;;;;;;;3.92;3.10;;;;;;;;;;6272851;22;20079;-71
2022/03/21 06:00:20;;;;;;;11.77;5.05;;;;;;;;;;6272239;22;20023;-69
2022/03/21 06:01:47;;;;;;;15.18;5.47;;;;;;;;;;6271217;22;20023;-72
2022/03/21 06:04:13;;;;;;;17.48;5.47;;;;;;;;;;6244796;22;20015;-72
2022/03/21 06:06:38;;;;;;;13.77;5.20;;;;;;;;;;6271037;22;20007;-70
2022/03/21 06:09:05;;;;;;;12.73;5.40;;;;;;;;;;6245363;22;20046;-70
2022/03/21 06:11:30;;;;;;;11.82;5.22;;;;;;;;;;6243696;22;20011;-70
2022/03/21 06:13:56;;;;;;;12.82;5.25;;;;;;;;;;6271043;22;20023;-71
2022/03/21 06:16:22;;;;;;;8.38;5.00;;;;;;;;;;6243753;22;20011;-70
2022/03/21 06:18:48;;;;;;;11.02;5.57;;;;;;;;;;6265640;22;20426;-73
2022/03/21 06:21:14;;;;;;;15.95;5.22;;;;;;;;;;6266887;22;20047;-74
2022/03/21 06:23:40;;;;;;;8.70;5.00;;;;;;;;;;6267505;22;20011;-72
2022/03/21 06:26:07;;;;;;;13.63;6.20;;;;;;;;;;6242727;22;20016;-71
2022/03/21 06:28:37;;;;;;;8.00;4.18;;;;;;;;;;6270259;22;20416;-71
2022/03/21 06:31:03;;;;;;;6.97;4.65;;;;;;;;;;6269740;22;20011;-72
2022/03/21 06:33:29;;;;;;;11.63;5.68;;;;;;;;;;6244243;22;20007;-70
2022/03/21 06:35:55;;;;;;;10.30;5.75;;;;;;;;;;6269985;22;20022;-70
2022/03/21 06:38:22;;;;;;;9.68;5.82;;;;;;;;;;6270605;22;20007;-73
2022/03/21 06:40:48;;;;;;;11.95;6.25;;;;;;;;;;6270548;22;20015;-74
2022/03/21 06:43:17;;;;;;;15.05;4.53;;;;;;;;;;6194787;22;20065;-72
2022/03/21 06:45:44;;;;;;;13.35;6.10;;;;;;;;;;6243001;22;20038;-73
2022/03/21 06:48:09;;;;;;;13.80;5.55;;;;;;;;;;6242863;22;20077;-72
2022/03/21 06:50:35;;;;;;;8.23;4.53;;;;;;;;;;6243194;22;20012;-73
2022/03/21 06:53:01;;;;;;;11.57;5.95;;;;;;;;;;6269936;22;20474;-74
2022/03/21 06:55:27;;;;;;;12.60;6.28;;;;;;;;;;6271364;22;20089;-74
2022/03/21 06:57:53;;;;;;;9.00;6.13;;;;;;;;;;6270852;22;20467;-73
2022/03/21 07:00:19;;;;;;;6.65;5.38;;;;;;;;;;6244392;22;20037;-73
2022/03/21 07:02:45;;;;;;;11.57;5.75;;;;;;;;;;6217888;22;20118;-73
2022/03/21 07:05:12;;;;;;;11.43;6.90;;;;;;;;;;6243174;22;20427;-72
2022/03/21 07:07:38;;;;;;;10.88;5.72;;;;;;;;;;6243431;22;20060;-71
2022/03/21 07:10:09;;;;;;;17.60;7.25;;;;;;;;;;6243717;22;20016;-72
2022/03/21 07:12:35;;;;;;;9.90;5.85;;;;;;;;;;6244501;22;20452;-72
2022/03/21 07:15:02;;;;;;;13.25;6.40;;;;;;;;;;6270939;22;20019;-74
2022/03/21 07:17:29;;;;;;;10.77;5.97;;;;;;;;;;6215637;22;20023;-71
2022/03/21 07:19:54;;;;;;;14.82;6.85;;;;;;;;;;6268715;22;20364;-73
2022/03/21 07:22:20;;;;;;;12.45;5.97;;;;;;;;;;6270610;22;20039;-73
2022/03/21 07:24:46;;;;;;;12.57;6.70;;;;;;;;;;6270430;22;20519;-72
2022/03/21 07:27:13;;;;;;;10.27;5.82;;;;;;;;;;6243552;22;20061;-72
2022/03/21 07:29:39;;;;;;;11.55;6.30;;;;;;;;;;6244396;22;20360;-73
2022/03/21 07:32:05;;;;;;;17.25;6.47;;;;;;;;;;6270813;22;20085;-70
2022/03/21 07:34:31;;;;;;;12.13;5.93;;;;;;;;;;6264101;22;20069;-72
2022/03/21 07:36:56;;;;;;;9.70;6.35;;;;;;;;;;6269054;22;20008;-72
2022/03/21 07:39:23;;;;;;;15.00;6.78;;;;;;;;;;6269863;22;20022;-70
2022/03/21 07:41:48;;;;;;;10.68;6.28;;;;;;;;;;6241353;22;20061;-72
2022/03/21 07:47:17;;;;;;;9.18;5.60;;;;;;;;;;6237723;22;20129;-73
2022/03/21 07:49:55;;;;;;;17.35;6.05;;;;;;;;;;6219800;22;20046;-72
2022/03/21 07:52:21;;;;;;;14.13;6.45;;;;;;;;;;6243100;22;20090;-73
2022/03/21 07:54:53;;;;;;;11.15;5.95;;;;;;;;;;6241791;22;20087;-73
2022/03/21 07:57:23;;;;;;;13.88;6.35;;;;;;;;;;6269778;22;20440;-72
2022/03/21 07:59:49;;;;;;;12.20;5.93;;;;;;;;;;6266304;22;20759;-73
2022/03/21 08:02:18;;;;;;;16.60;6.90;;;;;;;;;;6269966;22;20069;-72
2022/03/21 08:04:45;;;;;;;17.75;6.90;;;;;;;;;;6270673;22;20020;-73
2022/03/21 08:07:11;;;;;;;10.93;6.07;;;;;;;;;;6271140;22;20011;-74
2022/03/21 08:09:37;;;;;;;13.50;6.72;;;;;;;;;;6245021;22;20080;-72
2022/03/21 08:12:03;;;;;;;14.98;5.65;;;;;;;;;;6272634;22;20521;-71
2022/03/21 08:14:29;;;;;;;10.95;5.63;;;;;;;;;;6272382;22;20023;-71
2022/03/21 08:16:54;;;;;;;16.63;5.88;;;;;;;;;;6245213;22;20332;-70
2022/03/21 08:19:23;;;;;;;9.85;4.38;;;;;;;;;;6270326;22;20016;-71
2022/03/21 08:21:50;;;;;;;9.43;4.15;;;;;;;;;;6218103;22;20427;-70
2022/03/21 08:24:16;;;;;;;15.10;5.43;;;;;;;;;;6270796;22;20049;-71
2022/03/21 08:26:43;;;;;;;11.50;4.15;;;;;;;;;;6243433;22;20012;-71
2022/03/21 08:29:10;;;;;;;7.65;4.60;;;;;;;;;;6271937;22;20019;-70
2022/03/21 08:31:36;;;;;;;12.85;4.60;;;;;;;;;;6244121;22;20095;-70
2022/03/21 08:34:03;;;;;;;13.65;4.65;;;;;;;;;;6269355;22;20608;-71
2022/03/21 08:36:29;;;;;;;15.50;4.25;;;;;;;;;;6270026;22;20011;-71
2022/03/21 08:38:55;;;;;;;11.25;4.30;;;;;;;;;;6270750;22;20549;-71
2022/03/21 08:41:21;;;;;;;10.30;4.65;;;;;;;;;;6270993;22;20004;-71
2022/03/21 08:43:47;;;;;;;13.68;4.95;;;;;;;;;;6269745;22;20022;-70
2022/03/21 08:46:16;;;;;;;13.98;4.40;;;;;;;;;;6244113;22;20396;-71
2022/03/21 08:51:26;;;;;;;12.90;5.10;;;;;;;;;;6270132;22;20003;-71
2022/03/21 08:53:53;;;;;;;13.32;4.40;;;;;;;;;;6271171;22;20397;-75
2022/03/21 08:56:19;;;;;;;8.40;4.43;;;;;;;;;;6243291;22;20094;-71
2022/03/21 08:58:44;;;;;;;13.32;4.13;;;;;;;;;;6269531;22;20054;-71
2022/03/21 09:01:10;;;;;;;15.05;5.00;;;;;;;;;;6271269;22;20011;-73
2022/03/21 09:03:36;;;;;;;8.80;4.80;;;;;;;;;;6269505;22;20456;-72
2022/03/21 09:06:03;;;;;;;10.75;4.70;;;;;;;;;;6270482;22;20118;-71
2022/03/21 09:08:29;;;;;;;9.90;4.60;;;;;;;;;;6270630;22;20531;-72
2022/03/21 09:10:55;;;;;;;9.10;4.05;;;;;;;;;;6270409;22;20012;-71
2022/03/21 09:13:23;;;;;;;9.55;4.57;;;;;;;;;;6271159;22;20543;-71
2022/03/21 09:15:49;;;;;;;10.15;4.32;;;;;;;;;;6243011;22;20106;-71
2022/03/21 09:18:15;;;;;;;14.23;4.22;;;;;;;;;;6270783;22;20360;-72
2022/03/21 09:20:40;;;;;;;9.48;4.40;;;;;;;;;;6269986;22;20035;-72
2022/03/21 09:23:07;;;;;;;7.95;4.53;;;;;;;;;;6243207;22;20019;-71
2022/03/21 09:25:34;;;;;;;10.85;4.32;;;;;;;;;;6268091;22;20156;-71
2022/03/21 09:28:00;;;;;;;16.80;5.05;;;;;;;;;;6268435;22;20023;-71
2022/03/21 09:30:25;;;;;;;11.15;4.22;;;;;;;;;;6270439;22;20065;-69
2022/03/21 09:32:51;;;;;;;10.98;3.05;;;;;;;;;;6270249;22;20008;-70
2022/03/21 09:35:17;;;;;;;9.60;4.55;;;;;;;;;;6244025;22;20583;-71
2022/03/21 09:37:43;;;;;;;12.75;4.35;;;;;;;;;;6269655;22;20035;-71
2022/03/21 09:40:09;;;;;;;9.27;4.28;;;;;;;;;;6270340;22;20061;-70
2022/03/21 09:42:36;;;;;;;5.55;3.35;;;;;;;;;;6269783;22;20086;-70
2022/03/21 09:45:03;;;;;;;10.50;4.50;;;;;;;;;;6270243;22;20464;-70
2022/03/21 09:50:14;;;;;;;14.68;3.78;;;;;;;;;;6272693;22;20082;-70
2022/03/21 09:52:40;;;;;;;11.70;4.32;;;;;;;;;;6273621;22;20061;-70
2022/03/21 09:55:07;;;;;;;8.90;4.00;;;;;;;;;;6244777;22;20061;-70
2022/03/21 09:57:33;;;;;;;12.40;3.90;;;;;;;;;;6273449;22;20034;-71
2022/03/21 09:59:59;;;;;;;7.97;3.28;;;;;;;;;;6272022;22;20022;-71
2022/03/21 10:02:25;;;;;;;12.35;4.38;;;;;;;;;;6271727;22;20008;-71
2022/03/21 10:04:52;;;;;;;10.18;4.18;;;;;;;;;;6273282;22;20096;-71
2022/03/21 10:07:25;;;;;;;10.73;4.13;;;;;;;;;;6246149;22;20011;-71
2022/03/21 10:10:06;;;;;;;6.93;3.03;;;;;;;;;;6274250;22;20019;-70
2022/03/21 10:12:32;;;;;;;7.47;2.95;;;;;;;;;;6274351;22;20094;-71
2022/03/21 10:14:59;;;;;;;10.25;3.85;;;;;;;;;;6275082;22;20597;-70
2022/03/21 10:17:25;;;;;;;13.18;3.92;;;;;;;;;;6273645;22;20019;-71
2022/03/21 10:19:52;;;;;;;13.68;4.63;;;;;;;;;;6274665;22;20471;-71
2022/03/21 10:22:33;;;;;;;11.02;3.90;;;;;;;;;;6274259;22;20111;-71
2022/03/21 10:24:59;;;;;;;;;;;;;;;;;;6273601;22;20018;-71
2022/03/21 10:27:29;;;;;;;9.20;3.50;;;;;;;;;;6271705;22;19907;-70
2022/03/21 10:29:59;;;;;;;16.73;4.85;;;;;;;;;;6244668;22;20024;-70
2022/03/21 10:32:25;;;;;;;;;;;;;;;;;;6274670;22;20011;-70
2022/03/21 10:34:58;;;;;;;10.82;4.30;;;;;;;;;;6272902;22;19953;-71
2022/03/21 10:37:24;;;;;;;12.25;3.90;;;;;;;;;;6244791;22;20102;-70
2022/03/21 10:39:50;;;;;;;13.80;4.72;;;;;;;;;;6271731;22;20360;-71
2022/03/21 10:42:16;;;;;;;13.43;4.38;;;;;;;;;;6219902;22;20019;-69
2022/03/21 10:44:52;;;;;;;12.75;5.45;;;;;;;;;;6272140;22;20007;-69
2022/03/21 10:47:18;;;;;;;7.25;3.78;;;;;;;;;;6272465;22;20452;-70
2022/03/21 10:49:45;;;;;;;13.25;4.07;;;;;;;;;;6273881;22;20031;-70
2022/03/21 10:52:17;;;;;;;10.95;4.28;;;;;;;;;;6274409;22;20375;-71
2022/03/21 10:54:54;;;;;;;7.85;3.45;;;;;;;;;;6273032;22;20077;-70
2022/03/21 10:57:31;;;;;;;29.10;2.92;;;;;;;;;;6272414;22;20098;-71
2022/03/21 11:00:16;;;;;;;11.02;3.10;;;;;;;;;;6272448;22;20021;-70
2022/03/21 11:02:48;;;;;;;5.95;2.30;;;;;;;;;;6271451;22;20022;-71
2022/03/21 11:05:14;;;;;;;8.77;2.85;;;;;;;;;;6271831;22;20015;-71
2022/03/21 11:07:40;;;;;;;9.13;2.75;;;;;;;;;;6244624;22;20537;-71
2022/03/21 11:10:07;;;;;;;3.50;2.35;;;;;;;;;;6270659;22;20098;-71
2022/03/21 11:12:32;;;;;;;9.20;3.88;;;;;;;;;;6271959;22;20023;-72
2022/03/21 11:14:58;;;;;;;7.88;3.03;;;;;;;;;;6245360;22;20008;-71
2022/03/21 11:17:24;;;;;;;5.68;2.78;;;;;;;;;;6272156;22;20089;-70
2022/03/21 11:19:51;;;;;;;6.88;3.20;;;;;;;;;;6271723;22;20011;-71
2022/03/21 11:22:17;;;;;;;11.18;3.60;;;;;;;;;;6245125;22;20058;-70
2022/03/21 11:24:43;;;;;;;7.45;2.92;;;;;;;;;;6245478;22;20498;-70
2022/03/21 11:27:14;;;;;;;14.48;3.95;;;;;;;;;;6245036;22;20019;-72
2022/03/21 11:29:59;;;;;;;13.57;3.92;;;;;;;;;;6245133;22;20023;-70
2022/03/21 11:32:28;;;;;;;8.15;2.83;;;;;;;;;;6244798;22;20019;-71
2022/03/21 11:35:10;;;;;;;4.97;2.75;;;;;;;;;;6270401;22;20019;-69
2022/03/21 11:37:36;;;;;;;8.25;2.85;;;;;;;;;;6243857;22;20022;-71
2022/03/21 11:40:21;;;;;;;11.65;3.88;;;;;;;;;;6270867;22;20015;-70
2022/03/21 11:42:47;;;;;;;7.97;2.70;;;;;;;;;;6273079;22;20004;-72
2022/03/21 11:45:21;;;;;;;8.13;2.75;;;;;;;;;;6273103;22;20058;-72
2022/03/21 11:47:47;;;;;;;10.82;2.75;;;;;;;;;;6272148;22;20061;-71
2022/03/21 11:50:25;;;;;;;6.40;3.15;;;;;;;;;;6245602;22;20015;-71
2022/03/21 11:53:05;;;;;;;5.30;2.40;;;;;;;;;;6272211;22;20012;-71
2022/03/21 11:55:35;;;;;;;3.90;2.40;;;;;;;;;;6245208;22;20016;-71
2022/03/21 11:58:22;;;;;;;10.88;2.60;;;;;;;;;;6271077;22;20023;-71
2022/03/21 12:01:07;;;;;;;8.82;3.10;;;;;;;;;;6250432;22;20045;-71
2022/03/21 12:03:33;;;;;;;7.20;3.38;;;;;;;;;;6271043;22;20091;-72
2022/03/21 12:06:18;;;;;;;4.72;2.30;;;;;;;;;;6271173;22;20531;-71
2022/03/21 12:08:46;;;;;;;7.15;2.88;;;;;;;;;;6273526;22;20403;-70
2022/03/21 12:11:31;;;;;;;10.15;3.78;;;;;;;;;;6273619;22;20356;-72
2022/03/21 12:14:16;;;;;;;8.90;3.60;;;;;;;;;;6245299;22;20496;-71
2022/03/21 12:16:42;;;;;;;6.22;3.33;;;;;;;;;;6272823;22;20010;-71
2022/03/21 12:19:07;;;;;;;5.70;3.13;;;;;;;;;;6243857;22;20047;-72
2022/03/21 12:21:34;;;;;;;7.20;3.30;;;;;;;;;;6220008;22;20064;-71
2022/03/21 12:24:16;;;;;;;12.30;3.40;;;;;;;;;;6272173;22;20011;-72
2022/03/21 12:26:49;;;;;;;9.88;4.20;;;;;;;;;;6245243;22;20040;-71
2022/03/21 12:29:33;;;;;;;7.30;2.45;;;;;;;;;;6272626;22;20027;-71
2022/03/21 12:32:18;;;;;;;14.40;3.63;;;;;;;;;;6246139;22;20012;-71
2022/03/21 12:34:44;;;;;;;8.30;3.05;;;;;;;;;;6245281;22;20020;-71
2022/03/21 12:37:46;;;;;;;8.90;3.58;;;;;;;;;;6271678;22;20008;-71
2022/03/21 12:40:12;;;;;;;11.90;3.28;;;;;;;;;;6148257;23;20278;-70
2022/03/21 12:42:43;;;;;;;7.03;3.03;;;;;;;;;;6247379;22;20020;-71
2022/03/21 12:45:09;;;;;;;6.70;2.55;;;;;;;;;;6271929;22;20011;-70
2022/03/21 12:47:35;;;;;;;7.85;2.92;;;;;;;;;;6272171;22;20356;-71
2022/03/21 12:50:01;;;;;;;10.30;3.40;;;;;;;;;;6242768;22;20035;-71
2022/03/21 12:52:30;;;;;;;6.20;2.78;;;;;;;;;;6271235;22;20102;-71
2022/03/21 12:55:00;;;;;;;5.60;2.70;;;;;;;;;;6244740;22;20022;-71
2022/03/21 12:57:27;;;;;;;9.27;3.60;;;;;;;;;;6235487;23;20024;-71
2022/03/21 12:59:53;;;;;;;5.53;3.13;;;;;;;;;;6238298;23;20016;-73
2022/03/21 13:02:25;;;;;;;7.75;2.75;;;;;;;;;;6239855;23;20035;-72
2022/03/21 13:10:36;;;;;;;6.68;3.80;;;;;;;;;;6239636;23;20099;-70
2022/03/21 13:13:04;;;;;;;6.25;2.92;;;;;;;;;;6238985;23;20008;-71
2022/03/21 13:15:31;;;;;;;7.28;3.58;;;;;;;;;;6239428;23;20019;-70
2022/03/21 13:18:01;;;;;;;6.22;2.72;;;;;;;;;;6212367;23;20035;-72
2022/03/21 13:20:27;;;;;;;6.25;2.80;;;;;;;;;;6239577;23;20016;-71
2022/03/21 13:22:53;;;;;;;7.47;3.03;;;;;;;;;;6239734;23;20495;-71
2022/03/21 13:25:20;;;;;;;5.70;3.03;;;;;;;;;;6213371;23;20011;-72
2022/03/21 13:27:47;;;;;;;4.10;2.88;;;;;;;;;;6212680;23;20008;-72
2022/03/21 13:30:13;;;;;;;10.32;3.00;;;;;;;;;;6239505;23;20019;-73
2022/03/21 13:32:45;;;;;;;9.00;3.83;;;;;;;;;;6238313;23;20142;-74
2022/03/21 13:35:12;;;;;;;7.65;2.80;;;;;;;;;;6187578;23;20020;-73
2022/03/21 13:37:38;;;;;;;7.82;3.00;;;;;;;;;;6237728;23;20016;-73
2022/03/21 13:40:05;;;;;;;5.60;2.38;;;;;;;;;;6211570;23;20456;-72
2022/03/21 13:42:31;;;;;;;10.18;2.85;;;;;;;;;;6239774;23;20271;-73
2022/03/21 13:45:02;;;;;;;8.57;2.90;;;;;;;;;;6212901;23;20008;-73
2022/03/21 13:47:29;;;;;;;5.47;2.47;;;;;;;;;;6239862;23;20012;-72
2022/03/21 13:49:56;;;;;;;5.22;2.70;;;;;;;;;;6239649;23;20019;-73
2022/03/21 13:52:46;;;;;;;8.23;2.65;;;;;;;;;;6213078;23;20099;-73
2022/03/21 13:55:24;;;;;;;9.13;3.33;;;;;;;;;;6238212;23;20431;-74
2022/03/21 13:57:59;;;;;;;7.53;3.15;;;;;;;;;;6186854;23;20024;-74
2022/03/21 14:00:26;;;;;;;9.35;2.95;;;;;;;;;;6212703;23;20016;-74
2022/03/21 14:02:52;;;;;;;4.93;2.78;;;;;;;;;;6237896;23;20016;-74
2022/03/21 14:05:23;;;;;;;6.88;2.83;;;;;;;;;;6240112;23;20012;-74
2022/03/21 14:07:50;;;;;;;6.15;2.83;;;;;;;;;;6212553;23;20012;-73
2022/03/21 14:10:17;;;;;;;12.00;3.33;;;;;;;;;;6212660;23;20098;-73
2022/03/21 14:12:43;;;;;;;4.47;2.45;;;;;;;;;;6239830;23;20074;-73
2022/03/21 14:15:10;;;;;;;7.63;3.25;;;;;;;;;;6213107;23;20016;-73
2022/03/21 14:17:36;;;;;;;8.95;2.97;;;;;;;;;;6240396;23;20020;-74
2022/03/21 14:20:03;;;;;;;8.52;2.75;;;;;;;;;;6215538;23;20086;-73
2022/03/21 14:22:29;;;;;;;14.02;3.15;;;;;;;;;;6246227;23;20012;-74
2022/03/21 14:24:55;;;;;;;4.63;2.67;;;;;;;;;;6244522;23;20475;-74
2022/03/21 14:27:21;;;;;;;12.88;2.75;;;;;;;;;;6188561;23;20070;-73
2022/03/21 14:29:47;;;;;;;17.98;3.33;;;;;;;;;;6240630;23;20407;-73
2022/03/21 14:32:13;;;;;;;7.78;3.30;;;;;;;;;;6213767;23;20012;-73
2022/03/21 14:34:39;;;;;;;5.72;2.83;;;;;;;;;;6214359;23;20016;-73
2022/03/21 14:37:05;;;;;;;6.60;3.20;;;;;;;;;;6211614;23;20062;-73
2022/03/21 14:39:31;;;;;;;6.28;2.65;;;;;;;;;;6240665;23;20094;-73
2022/03/21 14:41:57;;;;;;;5.20;2.63;;;;;;;;;;6213082;23;20016;-73
2022/03/21 14:44:23;;;;;;;6.60;2.83;;;;;;;;;;6240466;23;20066;-73
2022/03/21 14:46:50;;;;;;;7.68;2.80;;;;;;;;;;6240710;23;20452;-73
2022/03/21 14:49:16;;;;;;;8.10;3.10;;;;;;;;;;6240270;23;20059;-73
2022/03/21 14:51:43;;;;;;;7.25;3.05;;;;;;;;;;6241983;23;20008;-74
2022/03/21 14:54:09;;;;;;;8.20;3.03;;;;;;;;;;6213849;23;20019;-74
2022/03/21 14:56:35;;;;;;;7.97;4.28;;;;;;;;;;6221062;22;20341;-73
2022/03/21 14:59:01;;;;;;;13.30;3.53;;;;;;;;;;6272351;22;20016;-73
2022/03/21 15:01:27;;;;;;;16.13;3.15;;;;;;;;;;6272076;22;20447;-73
2022/03/21 15:03:53;;;;;;;7.55;2.70;;;;;;;;;;6272174;22;20515;-73
2022/03/21 15:06:19;;;;;;;6.60;2.72;;;;;;;;;;6273293;22;20039;-74
2022/03/21 15:08:45;;;;;;;6.32;3.00;;;;;;;;;;6219998;22;20403;-73
2022/03/21 15:11:12;;;;;;;7.10;2.85;;;;;;;;;;6244331;22;20008;-73